Portada
METAR-TAF:

METAR-TAF

Aeroports :

Dumaguete, Filipines

latitud: 09-20-01N, longitud: 123-18-02E, altitud: 5 m

Observació

L'informe es va fer fa 2 hores i 50 minuts, a les 12:00 UTC
Vent calma
Temperatura 29°C
Humitat 89%
Pressió 1011 hPa
Visibilitat 10 km o més
Escasses núvols a una alçada de 1500 ft

METAR: RPVD 271200Z 00000KT 9999 FEW015 29/27 Q1011 RMK A2985

Hora: 22:50 (14:50 UTC)

Pronòstic

L'informe es va fer fa 3 hores i 50 minuts, a les 11:00 UTC
Pronòstic vàlid del 27 a les 12 UTC al 28 a les 12 UTC
Vent 8 kt del Est/Nord-Est
Visibilitat 10 km o més
Escasses núvols a una alçada de 1500 ft
Temporalment
l' 27 a les 12 UTC al 27 a les 18 UTC
Vent 4 kt del Est
Escasses núvols a una alçada de 1400 ft, Cumulonimbus.
Núvols disperses a una alçada de 1500 ft
Cel ennuvolat a una alçada de 8000 ft
xàfecs de pluja

TAF: RPVD 271100Z 2712/2812 07008KT 9999 FEW015 TEMPO 2712/2718 09004KT -SHRA FEW014CB SCT015 BKN080

Observacions i pronòstics meteorològics de més de 4000 aeroports (METAR i TAF).

Les estacions disponibles són els punts grocs i vermells al mapa.

Posi el ratolí al punt desitjat per veure el nom de l'estació.

Feu clic per veure les observacions i els pronòstics meteorològics.

Per canviar el mapa: feu clic els botons verds amb una creu de color negre per apropar; al botó verd amb un guió per allunyar la imatge; o en les fletxes verdes per a mapes adjacents.


METAR-TAF: